createdAt,value
2017-11-07T00:02:20.474Z,85.25
2017-11-07T00:04:49.493Z,85.34
2017-11-07T00:07:18.500Z,85.25
2017-11-07T00:09:47.586Z,85.40
2017-11-07T00:12:15.822Z,85.38
2017-11-07T00:14:44.144Z,85.12
2017-11-07T00:17:12.392Z,85.05
2017-11-07T00:19:41.393Z,84.97
2017-11-07T00:22:10.426Z,84.85
2017-11-07T00:24:38.664Z,84.54
2017-11-07T00:27:07.673Z,84.71
2017-11-07T00:29:35.926Z,84.62
2017-11-07T00:32:04.933Z,84.82
2017-11-07T00:34:33.186Z,84.65
2017-11-07T00:37:02.198Z,84.49
2017-11-07T00:39:31.201Z,84.65
2017-11-07T00:41:59.439Z,84.40
2017-11-07T00:44:27.696Z,84.09
2017-11-07T00:46:55.940Z,84.19
2017-11-07T00:49:24.182Z,84.44
2017-11-07T00:51:53.209Z,84.10
2017-11-07T00:54:21.429Z,84.17
2017-11-07T00:56:49.685Z,84.15
2017-11-07T00:59:17.916Z,84.27
2017-11-07T01:01:46.165Z,84.04
2017-11-07T01:04:14.403Z,83.91
2017-11-07T01:06:42.660Z,83.90
2017-11-07T01:09:10.897Z,83.72
2017-11-07T01:11:39.123Z,83.78
2017-11-07T01:14:07.366Z,83.51
2017-11-07T01:16:35.609Z,83.64
2017-11-07T01:19:03.862Z,83.22
2017-11-07T01:21:32.092Z,83.77
2017-11-07T01:24:00.345Z,83.37
2017-11-07T01:26:29.346Z,83.65
2017-11-07T01:28:58.354Z,84.04
2017-11-07T01:31:26.600Z,84.00
2017-11-07T01:33:54.841Z,83.90
2017-11-07T01:36:23.073Z,83.63
2017-11-07T01:38:51.336Z,83.49
2017-11-07T01:41:20.341Z,83.40
2017-11-07T01:43:48.578Z,83.24
2017-11-07T01:46:16.830Z,83.02
2017-11-07T01:48:45.065Z,82.84
2017-11-07T01:51:13.321Z,82.97
2017-11-07T01:53:41.558Z,83.09
2017-11-07T01:56:09.797Z,83.10
2017-11-07T01:58:38.041Z,83.13
2017-11-07T02:01:06.286Z,83.32
2017-11-07T02:03:34.530Z,83.43
2017-11-07T02:06:02.777Z,83.53
2017-11-07T02:08:31.785Z,83.59
2017-11-07T02:11:00.027Z,83.90
2017-11-07T02:13:28.274Z,83.63
2017-11-07T02:15:56.506Z,83.54
2017-11-07T02:18:25.521Z,83.63
2017-11-07T02:20:53.758Z,83.63
2017-11-07T02:23:22.174Z,83.96
2017-11-07T02:25:50.410Z,84.08
2017-11-07T02:28:18.653Z,84.30
2017-11-07T02:30:46.891Z,84.43
2017-11-07T02:33:15.131Z,84.15
2017-11-07T02:35:43.372Z,84.86
2017-11-07T02:38:11.630Z,84.53
2017-11-07T02:40:39.869Z,84.72
2017-11-07T02:43:08.908Z,84.78
2017-11-07T02:45:37.153Z,85.35
2017-11-07T02:48:06.163Z,85.29
2017-11-07T02:50:34.419Z,85.01
2017-11-07T02:53:03.431Z,84.65
2017-11-07T02:55:31.667Z,84.41
2017-11-07T02:57:59.912Z,84.34
2017-11-07T03:00:28.160Z,83.75
2017-11-07T03:02:56.405Z,83.74
2017-11-07T03:05:25.421Z,83.41
2017-11-07T03:07:53.663Z,83.15
2017-11-07T03:10:22.678Z,82.32
2017-11-07T03:12:50.918Z,82.62
2017-11-07T03:15:19.179Z,82.36
2017-11-07T03:17:47.414Z,82.11
2017-11-07T03:20:15.678Z,82.03
2017-11-07T03:22:43.923Z,81.34
2017-11-07T03:25:12.165Z,81.80
2017-11-07T03:27:40.415Z,81.09
2017-11-07T03:30:08.656Z,81.43
2017-11-07T03:32:37.671Z,81.43
2017-11-07T03:35:06.679Z,81.93
2017-11-07T03:37:34.922Z,81.46
2017-11-07T03:40:03.924Z,81.80
2017-11-07T03:42:32.935Z,81.84
2017-11-07T03:45:01.170Z,82.14
2017-11-07T03:47:29.413Z,82.43
2017-11-07T03:49:57.657Z,82.21
2017-11-07T03:52:25.918Z,82.42
2017-11-07T03:54:54.924Z,82.75
2017-11-07T03:57:23.162Z,82.69
2017-11-07T03:59:51.408Z,82.80
2017-11-07T04:02:19.643Z,83.07
2017-11-07T04:04:48.663Z,83.36
2017-11-07T04:07:16.906Z,83.78
2017-11-07T04:09:45.917Z,83.61
2017-11-07T04:12:14.157Z,83.64
2017-11-07T04:14:42.408Z,83.22
2017-11-07T04:17:10.644Z,83.56
2017-11-07T04:19:38.890Z,83.75
2017-11-07T04:22:07.894Z,83.55
2017-11-07T04:24:36.901Z,83.48
2017-11-07T04:27:05.175Z,83.38
2017-11-07T04:29:33.418Z,83.46
2017-11-07T04:32:02.429Z,83.58
2017-11-07T04:34:31.620Z,83.36
2017-11-07T04:37:00.638Z,83.09
2017-11-07T04:39:28.885Z,83.17
2017-11-07T04:41:57.916Z,83.13
2017-11-07T04:44:26.158Z,82.78
2017-11-07T04:46:55.162Z,82.85
2017-11-07T04:49:23.413Z,82.64
2017-11-07T04:51:51.658Z,82.41
2017-11-07T04:54:19.906Z,82.99
2017-11-07T04:56:48.170Z,82.77
2017-11-07T04:59:17.172Z,82.83
2017-11-07T05:01:45.410Z,82.87
2017-11-07T05:04:14.433Z,82.65
2017-11-07T05:06:42.677Z,82.72
2017-11-07T05:09:11.697Z,82.68
2017-11-07T05:11:39.938Z,82.43
2017-11-07T05:14:08.211Z,82.46
2017-11-07T05:16:36.451Z,82.41
2017-11-07T05:19:04.694Z,82.36
2017-11-07T05:21:32.942Z,82.29
2017-11-07T05:24:01.182Z,82.50
2017-11-07T05:26:29.438Z,82.57
2017-11-07T05:28:57.677Z,82.58
2017-11-07T05:31:26.797Z,82.49
2017-11-07T05:33:55.044Z,82.53
2017-11-07T05:36:23.293Z,82.59
2017-11-07T05:38:51.545Z,82.72
2017-11-07T05:41:19.809Z,82.63
2017-11-07T05:43:48.049Z,82.53
2017-11-07T05:46:17.050Z,82.51
2017-11-07T05:48:46.063Z,82.42
2017-11-07T05:51:14.305Z,82.56
2017-11-07T05:53:43.326Z,82.53
2017-11-07T05:56:11.570Z,82.55
2017-11-07T05:58:39.822Z,82.42
2017-11-07T06:01:08.067Z,82.22
2017-11-07T06:03:36.316Z,82.24
2017-11-07T06:06:05.317Z,82.50
2017-11-07T06:08:33.570Z,82.57
2017-11-07T06:11:01.813Z,82.58
2017-11-07T06:13:30.079Z,82.56
2017-11-07T06:15:58.328Z,82.69
2017-11-07T06:18:26.570Z,82.55
2017-11-07T06:20:54.813Z,82.38
2017-11-07T06:23:23.079Z,82.32
2017-11-07T06:25:51.310Z,82.19
2017-11-07T06:28:20.315Z,82.14
2017-11-07T06:30:48.559Z,82.15
2017-11-07T06:33:16.799Z,81.97
2017-11-07T06:35:45.042Z,81.81
2017-11-07T06:38:13.278Z,81.63
2017-11-07T06:40:41.530Z,81.63
2017-11-07T06:43:09.769Z,81.44
2017-11-07T06:45:38.025Z,81.68
2017-11-07T06:48:07.037Z,81.59
2017-11-07T06:50:35.293Z,81.87
2017-11-07T06:53:04.300Z,81.57
2017-11-07T06:55:32.559Z,81.74
2017-11-07T06:58:01.562Z,81.33
2017-11-07T07:00:30.570Z,81.49
2017-11-07T07:02:58.819Z,81.49
2017-11-07T07:05:27.828Z,81.52
2017-11-07T07:07:56.082Z,81.68
2017-11-07T07:10:24.327Z,81.32
2017-11-07T07:12:52.571Z,81.26
2017-11-07T07:15:20.814Z,81.00
2017-11-07T07:17:49.825Z,81.34
2017-11-07T07:20:18.066Z,80.82
2017-11-07T07:22:46.318Z,80.85
2017-11-07T07:25:14.568Z,80.85
2017-11-07T07:27:42.832Z,80.72
2017-11-07T07:30:11.074Z,80.71
2017-11-07T07:32:39.322Z,81.03
2017-11-07T07:35:07.570Z,81.11
2017-11-07T07:37:35.813Z,81.06
2017-11-07T07:40:04.827Z,80.88
2017-11-07T07:42:33.070Z,80.74
2017-11-07T07:45:02.078Z,80.73
2017-11-07T07:47:31.087Z,81.32
2017-11-07T07:49:59.336Z,81.05
2017-11-07T07:52:27.572Z,80.80
2017-11-07T07:54:55.826Z,80.45
2017-11-07T07:57:24.058Z,80.69
2017-11-07T07:59:53.070Z,80.33
2017-11-07T08:02:21.309Z,80.47
2017-11-07T08:04:49.554Z,80.21
2017-11-07T08:07:17.799Z,80.04
2017-11-07T08:09:46.054Z,79.58
2017-11-07T08:12:14.291Z,79.92
2017-11-07T08:14:42.541Z,80.21
2017-11-07T08:17:10.781Z,79.96
2017-11-07T08:19:39.018Z,79.59
2017-11-07T08:22:07.250Z,79.26
2017-11-07T08:24:35.494Z,79.01
2017-11-07T08:27:03.730Z,79.03
2017-11-07T08:29:31.977Z,78.96
2017-11-07T08:32:00.217Z,79.21
2017-11-07T08:34:28.476Z,79.19
2017-11-07T08:36:56.726Z,79.24
2017-11-07T08:39:24.958Z,79.45
2017-11-07T08:41:53.974Z,79.87
2017-11-07T08:44:22.218Z,79.70
2017-11-07T08:46:50.466Z,79.66
2017-11-07T08:49:19.475Z,80.54
2017-11-07T08:51:47.719Z,80.38
2017-11-07T08:54:15.966Z,80.19
2017-11-07T08:56:44.211Z,79.79
2017-11-07T08:59:13.222Z,79.82
2017-11-07T09:01:42.238Z,79.99
2017-11-07T09:04:10.468Z,79.83
2017-11-07T09:06:39.498Z,79.78
2017-11-07T09:09:07.737Z,80.39
2017-11-07T09:11:35.984Z,80.90
2017-11-07T09:14:04.224Z,79.45
2017-11-07T09:16:32.470Z,78.21
2017-11-07T09:19:01.490Z,78.88
2017-11-07T09:21:29.738Z,79.29
2017-11-07T09:23:58.754Z,79.12
2017-11-07T09:26:26.999Z,79.08
2017-11-07T09:28:55.250Z,79.56
2017-11-07T09:31:23.499Z,78.65
2017-11-07T09:33:51.751Z,78.86
2017-11-07T09:36:19.994Z,78.25
2017-11-07T09:38:48.267Z,78.89
2017-11-07T09:41:16.501Z,79.08
2017-11-07T09:43:44.747Z,79.36
2017-11-07T09:46:13.759Z,79.94
2017-11-07T09:48:42.002Z,79.82
2017-11-07T09:51:11.026Z,79.40
2017-11-07T09:53:39.279Z,79.13
2017-11-07T09:56:08.289Z,78.71
2017-11-07T09:58:36.534Z,78.92
2017-11-07T10:01:04.787Z,79.64
2017-11-07T10:03:33.034Z,79.21
2017-11-07T10:06:01.282Z,79.76
2017-11-07T10:08:29.526Z,79.46
2017-11-07T10:10:57.773Z,79.48
2017-11-07T10:13:26.781Z,79.31
2017-11-07T10:15:55.026Z,79.08
2017-11-07T10:18:23.272Z,79.42
2017-11-07T10:20:52.288Z,79.65
2017-11-07T10:23:20.519Z,79.54
2017-11-07T10:25:48.766Z,79.04
2017-11-07T10:28:17.015Z,78.61
2017-11-07T10:30:45.266Z,78.46
2017-11-07T10:33:14.278Z,78.24
2017-11-07T10:35:42.529Z,78.47
2017-11-07T10:38:11.533Z,78.56
2017-11-07T10:40:39.789Z,78.40
2017-11-07T10:43:08.797Z,78.71
2017-11-07T10:45:37.053Z,78.41
2017-11-07T10:48:05.294Z,78.75
2017-11-07T10:50:33.547Z,78.30
2017-11-07T10:53:01.933Z,78.30
2017-11-07T10:55:30.200Z,78.68
2017-11-07T10:57:58.442Z,78.00
2017-11-07T11:00:27.461Z,78.22
2017-11-07T11:02:55.703Z,77.40
2017-11-07T11:05:24.721Z,76.96
2017-11-07T11:07:52.958Z,77.18
2017-11-07T11:10:21.201Z,76.93
2017-11-07T11:12:49.449Z,76.58
2017-11-07T11:15:17.692Z,76.36
2017-11-07T11:17:45.937Z,76.56
2017-11-07T11:20:14.186Z,76.78
2017-11-07T11:22:42.434Z,75.94
2017-11-07T11:25:11.439Z,76.71
2017-11-07T11:27:39.689Z,77.11
2017-11-07T11:30:07.934Z,76.89
2017-11-07T11:32:36.175Z,76.85
2017-11-07T11:35:04.428Z,76.63
2017-11-07T11:37:33.437Z,77.22
2017-11-07T11:40:01.682Z,77.55
2017-11-07T11:42:30.689Z,77.13
2017-11-07T11:44:59.715Z,77.09
2017-11-07T11:47:27.953Z,76.61
2017-11-07T11:49:56.967Z,77.22
2017-11-07T11:52:25.214Z,77.12
2017-11-07T11:54:54.234Z,76.95
2017-11-07T11:57:22.482Z,77.32
2017-11-07T11:59:51.500Z,77.68
2017-11-07T12:02:19.748Z,76.93
2017-11-07T12:04:47.979Z,77.07
2017-11-07T12:07:16.226Z,76.79
2017-11-07T12:09:44.476Z,76.84
2017-11-07T12:12:13.498Z,76.77
2017-11-07T12:14:41.741Z,76.56
2017-11-07T12:17:10.753Z,77.06
2017-11-07T12:19:39.007Z,76.74
2017-11-07T12:22:07.256Z,77.02
2017-11-07T12:24:35.587Z,76.79
2017-11-07T12:27:03.839Z,76.63
2017-11-07T12:29:32.856Z,77.07
2017-11-07T12:32:01.105Z,77.10
2017-11-07T12:34:29.337Z,76.92
2017-11-07T12:36:57.646Z,77.10
2017-11-07T12:39:25.895Z,76.78
2017-11-07T12:41:54.152Z,77.66
2017-11-07T12:44:22.382Z,77.46
2017-11-07T12:46:51.412Z,77.57
2017-11-07T12:49:19.677Z,77.86
2017-11-07T12:51:59.766Z,77.45
2017-11-07T12:54:28.018Z,77.58
2017-11-07T12:56:56.272Z,77.07
2017-11-07T12:59:25.283Z,77.57
2017-11-07T13:01:53.541Z,78.17
2017-11-07T13:04:22.552Z,78.05
2017-11-07T13:06:50.802Z,77.60
2017-11-07T13:09:19.813Z,78.18
2017-11-07T13:11:48.064Z,77.77
2017-11-07T13:14:17.066Z,77.83
2017-11-07T13:16:46.089Z,77.36
2017-11-07T13:19:14.334Z,76.83
2017-11-07T13:21:43.355Z,76.96
2017-11-07T13:24:11.606Z,76.80
2017-11-07T13:26:40.610Z,76.30
2017-11-07T13:29:08.872Z,76.57
2017-11-07T13:31:37.870Z,76.83
2017-11-07T13:34:06.887Z,76.52
2017-11-07T13:36:35.130Z,75.90
2017-11-07T13:39:04.138Z,75.79
2017-11-07T13:41:32.386Z,75.85
2017-11-07T13:44:00.638Z,75.98
2017-11-07T13:46:28.868Z,76.02
2017-11-07T13:48:57.119Z,75.84
2017-11-07T13:51:26.129Z,76.34
2017-11-07T13:53:54.386Z,76.42
2017-11-07T13:56:23.398Z,76.29
2017-11-07T13:58:51.647Z,76.73
2017-11-07T14:01:19.899Z,75.93
2017-11-07T14:03:48.145Z,75.74
2017-11-07T14:06:16.386Z,76.42
2017-11-07T14:08:45.395Z,76.03
2017-11-07T14:11:13.642Z,76.27
2017-11-07T14:13:41.883Z,76.36
2017-11-07T14:16:10.134Z,76.15
2017-11-07T14:18:38.383Z,76.82
2017-11-07T14:21:07.410Z,76.62
2017-11-07T14:23:35.653Z,76.89
2017-11-07T14:26:04.663Z,76.30
2017-11-07T14:28:32.910Z,77.00
2017-11-07T14:31:01.945Z,76.73
2017-11-07T14:33:30.182Z,76.75
2017-11-07T14:35:59.186Z,76.82
2017-11-07T14:38:28.202Z,76.56
2017-11-07T14:40:56.446Z,76.72
2017-11-07T14:43:25.475Z,76.81
2017-11-07T14:45:53.707Z,76.65
2017-11-07T14:48:22.729Z,76.86
2017-11-07T14:50:50.974Z,76.80
2017-11-07T14:53:19.991Z,76.56
2017-11-07T14:55:48.242Z,77.07
2017-11-07T14:58:17.251Z,76.90
2017-11-07T15:00:46.262Z,76.87
2017-11-07T15:03:14.511Z,77.27
2017-11-07T15:05:43.518Z,77.05
2017-11-07T15:08:11.770Z,77.70
2017-11-07T15:10:40.779Z,77.74
2017-11-07T15:13:09.794Z,77.43
2017-11-07T15:15:38.046Z,77.63
2017-11-07T15:18:07.073Z,77.65
2017-11-07T15:20:35.309Z,77.89
2017-11-07T15:23:04.329Z,77.74
2017-11-07T15:25:32.576Z,77.72
2017-11-07T15:28:01.585Z,77.54
2017-11-07T15:30:29.827Z,77.53
2017-11-07T15:32:58.090Z,77.55
2017-11-07T15:35:26.338Z,77.04
2017-11-07T15:37:54.591Z,77.10
2017-11-07T15:40:22.844Z,76.95
2017-11-07T15:42:51.862Z,76.93
2017-11-07T15:45:20.124Z,76.86
2017-11-07T15:47:49.126Z,76.85
2017-11-07T15:50:17.366Z,76.66
2017-11-07T15:52:45.618Z,76.60
2017-11-07T15:55:13.871Z,76.70
2017-11-07T15:57:42.124Z,77.05
2017-11-07T16:00:11.144Z,76.93
2017-11-07T16:02:40.220Z,77.06
2017-11-07T16:05:08.465Z,77.08
2017-11-07T16:07:36.715Z,76.79
2017-11-07T16:10:04.964Z,76.73
2017-11-07T16:12:33.213Z,76.61
2017-11-07T16:15:01.464Z,77.13
2017-11-07T16:17:29.727Z,76.84
2017-11-07T16:19:57.954Z,76.67
2017-11-07T16:22:26.210Z,76.69
2017-11-07T16:24:55.222Z,76.53
2017-11-07T16:27:23.474Z,76.98
2017-11-07T16:29:52.487Z,76.79
2017-11-07T16:32:20.731Z,77.21
2017-11-07T16:34:49.742Z,77.09
2017-11-07T16:37:18.766Z,77.17
2017-11-07T16:39:48.563Z,77.29
2017-11-07T16:42:16.808Z,77.18
2017-11-07T16:44:45.821Z,77.22
2017-11-07T16:47:14.069Z,77.29
2017-11-07T16:49:42.307Z,77.50
2017-11-07T16:52:10.553Z,77.42
2017-11-07T16:54:38.796Z,77.24
2017-11-07T16:57:07.817Z,77.43
2017-11-07T16:59:36.062Z,77.23
2017-11-07T17:02:05.078Z,77.37
2017-11-07T17:04:33.345Z,77.65
2017-11-07T17:07:02.384Z,77.44
2017-11-07T17:09:30.643Z,77.59
2017-11-07T17:11:58.884Z,77.80
2017-11-07T17:14:27.905Z,78.10
2017-11-07T17:16:56.153Z,77.92
2017-11-07T17:19:25.162Z,77.80
2017-11-07T17:21:53.423Z,77.76
2017-11-07T17:24:22.428Z,78.33
2017-11-07T17:26:50.677Z,78.57
2017-11-07T17:29:19.698Z,78.74
2017-11-07T17:31:48.714Z,78.58
2017-11-07T17:34:16.959Z,78.95
2017-11-07T17:36:45.990Z,78.90
2017-11-07T17:39:14.238Z,79.03
2017-11-07T17:41:42.484Z,78.80
2017-11-07T17:44:10.741Z,78.87
2017-11-07T17:46:38.978Z,79.06
2017-11-07T17:49:07.221Z,79.26
2017-11-07T17:51:36.241Z,79.17
2017-11-07T17:54:04.488Z,79.20
2017-11-07T17:56:33.489Z,79.19
2017-11-07T17:59:02.506Z,79.13
2017-11-07T18:01:30.751Z,79.14
2017-11-07T18:03:59.772Z,79.18
2017-11-07T18:06:28.018Z,79.32
2017-11-07T18:08:57.034Z,79.29
2017-11-07T18:11:25.281Z,79.31
2017-11-07T18:13:53.529Z,79.38
2017-11-07T18:16:21.776Z,79.26
2017-11-07T18:18:50.019Z,79.09
2017-11-07T18:21:19.030Z,79.30
2017-11-07T18:23:47.283Z,79.11
2017-11-07T18:26:16.286Z,79.34
2017-11-07T18:28:44.538Z,79.44
2017-11-07T18:31:12.779Z,79.67
2017-11-07T18:33:41.034Z,79.73
2017-11-07T18:36:09.275Z,79.56
2017-11-07T18:38:38.286Z,79.67
2017-11-07T18:41:06.532Z,79.65
2017-11-07T18:43:34.790Z,79.67
2017-11-07T18:46:03.034Z,79.84
2017-11-07T18:48:31.278Z,79.63
2017-11-07T18:51:00.291Z,79.72
2017-11-07T18:53:28.541Z,79.77
2017-11-07T18:55:57.550Z,80.04
2017-11-07T18:58:26.563Z,79.90
2017-11-07T19:00:54.807Z,79.77
2017-11-07T19:03:23.818Z,79.90
2017-11-07T19:05:52.063Z,79.77
2017-11-07T19:08:20.307Z,79.84
2017-11-07T19:10:48.555Z,79.76
2017-11-07T19:13:16.803Z,79.65
2017-11-07T19:15:45.812Z,79.65
2017-11-07T19:18:14.064Z,79.58
2017-11-07T19:20:43.068Z,79.53
2017-11-07T19:23:12.083Z,79.28
2017-11-07T19:25:40.340Z,79.43
2017-11-07T19:28:09.339Z,79.33
2017-11-07T19:30:37.582Z,79.49
2017-11-07T19:33:05.835Z,79.33
2017-11-07T19:35:34.079Z,79.06
2017-11-07T19:38:02.333Z,79.20
2017-11-07T19:40:31.336Z,79.11
2017-11-07T19:42:59.581Z,79.25
2017-11-07T19:45:28.593Z,79.24
2017-11-07T19:47:57.607Z,79.04
2017-11-07T19:50:25.842Z,79.12
2017-11-07T19:52:54.865Z,79.35
2017-11-07T19:55:23.118Z,79.25
2017-11-07T19:57:52.119Z,79.03
2017-11-07T20:00:21.132Z,79.19
2017-11-07T20:02:49.383Z,79.18
2017-11-07T20:05:18.395Z,79.18
2017-11-07T20:07:46.655Z,79.25
2017-11-07T20:10:15.661Z,79.15
2017-11-07T20:12:43.921Z,79.19
2017-11-07T20:15:12.929Z,78.95
2017-11-07T20:17:41.204Z,78.94
2017-11-07T20:20:09.445Z,78.98
2017-11-07T20:22:37.723Z,78.96
2017-11-07T20:25:05.980Z,78.67
2017-11-07T20:27:34.218Z,78.81
2017-11-07T20:30:02.472Z,78.93
2017-11-07T20:32:30.721Z,79.07
2017-11-07T20:34:58.990Z,79.16
2017-11-07T20:37:27.233Z,79.14
2017-11-07T20:39:55.487Z,79.09
2017-11-07T20:42:23.739Z,79.04
2017-11-07T20:44:52.745Z,78.67
2017-11-07T20:47:20.989Z,78.66
2017-11-07T20:49:49.891Z,78.40
2017-11-07T20:52:18.899Z,78.55
2017-11-07T20:54:47.916Z,78.59
2017-11-07T20:57:16.154Z,78.70
2017-11-07T20:59:45.173Z,78.70
2017-11-07T21:02:13.422Z,78.61
2017-11-07T21:04:41.666Z,78.89
2017-11-07T21:07:09.916Z,78.98
2017-11-07T21:09:38.165Z,79.03
2017-11-07T21:12:06.402Z,79.07
2017-11-07T21:14:34.655Z,79.14
2017-11-07T21:17:02.901Z,79.07
2017-11-07T21:19:32.943Z,79.10
2017-11-07T21:22:01.189Z,79.33
2017-11-07T21:24:29.437Z,79.67
2017-11-07T21:26:58.457Z,79.61
2017-11-07T21:29:26.705Z,79.49
2017-11-07T21:31:55.717Z,79.51
2017-11-07T21:34:24.718Z,79.82
2017-11-07T21:36:52.962Z,79.55
2017-11-07T21:39:21.211Z,79.45
2017-11-07T21:41:49.458Z,79.48
2017-11-07T21:44:17.705Z,79.34
2017-11-07T21:46:46.714Z,79.56
2017-11-07T21:49:14.970Z,79.62
2017-11-07T21:51:43.982Z,79.73
2017-11-07T21:54:12.229Z,79.67
2017-11-07T21:56:41.244Z,79.67
2017-11-07T21:59:09.498Z,79.84
2017-11-07T22:01:37.736Z,79.56
2017-11-07T22:04:05.992Z,79.70
2017-11-07T22:06:34.250Z,79.77
2017-11-07T22:09:02.502Z,79.64
2017-11-07T22:11:31.515Z,79.66
2017-11-07T22:13:59.786Z,79.47
2017-11-07T22:16:28.799Z,79.42
2017-11-07T22:19:03.450Z,79.59
2017-11-07T22:21:31.693Z,79.31
2017-11-07T22:23:59.935Z,79.38
2017-11-07T22:26:28.181Z,79.62
2017-11-07T22:28:57.195Z,79.75
2017-11-07T22:31:28.268Z,79.68
2017-11-07T22:33:56.506Z,79.74
2017-11-07T22:36:24.760Z,79.85
2017-11-07T22:38:56.966Z,79.80
2017-11-07T22:41:26.066Z,79.47
2017-11-07T22:43:55.902Z,79.52
2017-11-07T22:46:24.208Z,79.55
2017-11-07T22:48:53.314Z,79.51
2017-11-07T22:51:21.652Z,79.37
2017-11-07T22:53:50.028Z,79.46
2017-11-07T22:56:18.400Z,79.47
2017-11-07T22:58:47.534Z,79.48
2017-11-07T23:13:52.130Z,79.64
2017-11-07T23:16:20.458Z,79.69
2017-11-07T23:18:49.487Z,79.88
2017-11-07T23:21:17.767Z,79.29
2017-11-07T23:23:46.010Z,79.34
2017-11-07T23:26:15.010Z,79.63
2017-11-07T23:28:44.043Z,79.72
2017-11-07T23:31:12.282Z,79.47
2017-11-07T23:33:40.530Z,79.75
2017-11-07T23:36:08.786Z,79.44
2017-11-07T23:38:37.024Z,79.47
2017-11-07T23:41:05.276Z,79.68
2017-11-07T23:43:34.285Z,79.54
2017-11-07T23:46:02.544Z,79.32
2017-11-07T23:48:31.544Z,79.38
2017-11-07T23:51:02.374Z,79.12
2017-11-07T23:53:31.384Z,79.06
2017-11-07T23:55:59.634Z,79.11
2017-11-07T23:58:30.493Z,79.03
